createdAt,value
2023-01-23T00:01:35.175Z,102972.38
2023-01-23T00:04:03.632Z,102974.00
2023-01-23T00:06:30.982Z,102977.63
2023-01-23T00:08:58.028Z,102970.56
2023-01-23T00:11:30.283Z,102969.44
2023-01-23T00:13:59.816Z,102954.47
2023-01-23T00:16:31.085Z,102962.50
2023-01-23T00:18:59.023Z,102959.72
2023-01-23T00:21:29.812Z,102963.34
2023-01-23T00:24:04.603Z,102962.25
2023-01-23T00:26:33.260Z,102952.56
2023-01-23T00:29:00.098Z,102953.50
2023-01-23T00:31:37.290Z,102947.34
2023-01-23T00:34:14.951Z,102956.19
2023-01-23T00:36:45.067Z,102958.81
2023-01-23T00:39:22.195Z,102958.75
2023-01-23T00:41:52.639Z,102957.06
2023-01-23T00:44:21.376Z,102956.31
2023-01-23T00:46:49.234Z,102955.69
2023-01-23T00:49:17.790Z,102958.50
2023-01-23T00:51:51.069Z,102955.09
2023-01-23T00:54:25.968Z,102941.94
2023-01-23T00:56:53.177Z,102939.31
2023-01-23T00:59:19.868Z,102933.22
2023-01-23T01:01:46.650Z,102949.09
2023-01-23T01:04:13.462Z,102956.97
2023-01-23T01:06:43.165Z,102953.34
2023-01-23T01:09:09.793Z,102958.75
2023-01-23T01:11:36.514Z,102961.44
2023-01-23T01:14:07.719Z,102972.91
2023-01-23T01:16:34.589Z,102962.28
2023-01-23T01:19:05.052Z,102960.69
2023-01-23T01:21:31.685Z,102965.91
2023-01-23T01:23:58.374Z,102959.75
2023-01-23T01:26:26.183Z,102960.59
2023-01-23T01:28:56.060Z,102973.78
2023-01-23T01:31:36.108Z,102977.28
2023-01-23T01:34:02.862Z,102969.38
2023-01-23T01:36:30.049Z,102975.56
2023-01-23T01:38:58.728Z,102982.69
2023-01-23T01:41:25.515Z,102979.13
2023-01-23T01:43:57.074Z,102976.56
2023-01-23T01:46:30.052Z,102977.59
2023-01-23T01:49:30.288Z,102981.16
2023-01-23T01:52:14.601Z,102978.53
2023-01-23T01:54:55.167Z,102981.25
2023-01-23T01:57:44.827Z,102974.25
2023-01-23T02:00:19.934Z,102969.88
2023-01-23T02:03:01.405Z,102975.22
2023-01-23T02:05:42.500Z,102978.59
2023-01-23T02:08:46.824Z,102973.44
2023-01-23T02:11:15.141Z,102984.88
2023-01-23T02:13:46.024Z,102976.03
2023-01-23T02:16:26.366Z,102970.72
2023-01-23T02:19:04.666Z,102975.09
2023-01-23T02:21:32.201Z,102976.03
2023-01-23T02:24:35.528Z,102972.41
2023-01-23T02:27:03.136Z,102981.16
2023-01-23T02:29:45.869Z,102970.34
2023-01-23T02:32:12.689Z,102974.75
2023-01-23T02:34:41.643Z,102977.41
2023-01-23T02:37:09.612Z,102977.38
2023-01-23T02:39:40.623Z,102976.53
2023-01-23T02:42:10.618Z,102974.72
2023-01-23T02:44:38.601Z,102973.88
2023-01-23T02:47:12.320Z,102981.84
2023-01-23T02:49:43.164Z,102981.78
2023-01-23T02:52:10.205Z,102983.69
2023-01-23T02:54:37.080Z,102980.13
2023-01-23T02:57:04.317Z,102978.47
2023-01-23T02:59:49.377Z,102988.13
2023-01-23T03:02:16.208Z,102982.84
2023-01-23T03:04:45.768Z,102983.69
2023-01-23T03:07:12.460Z,102990.72
2023-01-23T03:09:42.162Z,102995.91
2023-01-23T03:12:12.426Z,102998.53
2023-01-23T03:14:41.040Z,103004.72
2023-01-23T03:17:08.101Z,102999.41
2023-01-23T03:19:35.594Z,103006.38
2023-01-23T03:22:02.475Z,102997.53
2023-01-23T03:24:29.164Z,103008.19
2023-01-23T03:26:56.695Z,103002.03
2023-01-23T03:29:45.441Z,103009.91
2023-01-23T03:32:15.015Z,103001.09
2023-01-23T03:34:43.830Z,103002.81
2023-01-23T03:37:12.863Z,103001.78
2023-01-23T03:40:00.755Z,103008.94
2023-01-23T03:42:27.456Z,103000.97
2023-01-23T03:44:54.795Z,103003.66
2023-01-23T03:47:21.904Z,102992.25
2023-01-23T03:49:48.637Z,103008.09
2023-01-23T03:52:15.307Z,103009.88
2023-01-23T03:54:44.751Z,103016.91
2023-01-23T03:57:11.640Z,103018.72
2023-01-23T03:59:46.976Z,103011.66
2023-01-23T04:02:16.542Z,103024.03
2023-01-23T04:04:43.265Z,103016.97
2023-01-23T04:07:10.053Z,103013.44
2023-01-23T04:09:36.877Z,103021.44
2023-01-23T04:12:03.875Z,103017.03
2023-01-23T04:14:35.210Z,103012.66
2023-01-23T04:17:01.899Z,103014.41
2023-01-23T04:19:28.522Z,103010.88
2023-01-23T04:22:01.283Z,103014.38
2023-01-23T04:24:28.101Z,103013.44
2023-01-23T04:26:55.100Z,103011.72
2023-01-23T04:29:25.511Z,103010.78
2023-01-23T04:31:52.376Z,103006.41
2023-01-23T04:34:19.118Z,103020.47
2023-01-23T04:36:48.527Z,103016.88
2023-01-23T04:39:18.220Z,103020.34
2023-01-23T04:41:45.227Z,103012.44
2023-01-23T04:44:24.835Z,103015.09
2023-01-23T04:46:54.250Z,103016.88
2023-01-23T04:49:30.054Z,103021.41
2023-01-23T04:52:02.721Z,103023.13
2023-01-23T04:54:29.402Z,103020.53
2023-01-23T04:57:00.715Z,103022.28
2023-01-23T04:59:27.428Z,103029.34
2023-01-23T05:01:54.175Z,103036.50
2023-01-23T05:04:21.110Z,103039.16
2023-01-23T05:06:47.915Z,103038.34
2023-01-23T05:09:16.754Z,103034.84
2023-01-23T05:11:44.655Z,103033.97
2023-01-23T05:14:13.877Z,103037.56
2023-01-23T05:16:43.855Z,103034.94
2023-01-23T05:19:11.676Z,103047.50
2023-01-23T05:21:38.345Z,103041.38
2023-01-23T05:24:07.737Z,103047.66
2023-01-23T05:26:35.148Z,103052.13
2023-01-23T05:29:02.142Z,103063.75
2023-01-23T05:31:28.810Z,103065.66
2023-01-23T05:33:55.528Z,103074.59
2023-01-23T05:36:22.155Z,103066.63
2023-01-23T05:38:49.134Z,103072.91
2023-01-23T05:41:15.893Z,103068.53
2023-01-23T05:43:44.204Z,103073.94
2023-01-23T05:46:10.859Z,103076.59
2023-01-23T05:48:39.933Z,103066.81
2023-01-23T05:51:09.658Z,103063.28
2023-01-23T05:53:36.482Z,103066.84
2023-01-23T05:56:11.111Z,103066.84
2023-01-23T05:58:37.807Z,103060.69
2023-01-23T06:01:08.610Z,103072.22
2023-01-23T06:03:35.343Z,103072.22
2023-01-23T06:06:02.298Z,103075.75
2023-01-23T06:08:29.319Z,103080.19
2023-01-23T06:11:01.707Z,103069.59
2023-01-23T06:13:29.654Z,103073.09
2023-01-23T06:15:59.791Z,103072.28
2023-01-23T06:18:26.636Z,103070.53
2023-01-23T06:21:02.246Z,103074.06
2023-01-23T06:23:29.587Z,103069.69
2023-01-23T06:26:04.515Z,103088.19
2023-01-23T06:28:31.505Z,103082.06
2023-01-23T06:31:04.115Z,103089.09
2023-01-23T06:33:31.873Z,103079.38
2023-01-23T06:36:08.233Z,103090.09
2023-01-23T06:38:35.015Z,103088.34
2023-01-23T06:41:02.146Z,103087.44
2023-01-23T06:48:54.233Z,103095.31
2023-01-23T07:02:04.965Z,103110.47
2023-01-23T08:12:16.341Z,103191.59
2023-01-23T08:47:38.787Z,103212.47
2023-01-23T08:50:07.847Z,103214.19
2023-01-23T08:55:16.037Z,103208.75
2023-01-23T08:57:42.689Z,103211.38
2023-01-23T09:00:11.029Z,103216.56
2023-01-23T09:13:24.980Z,103215.53
2023-01-23T09:15:51.626Z,103214.53
2023-01-23T09:18:18.400Z,103218.84
2023-01-23T09:20:45.169Z,103221.44
2023-01-23T09:23:11.879Z,103214.34
2023-01-23T09:25:38.513Z,103216.06
2023-01-23T09:28:11.447Z,103221.31
2023-01-23T09:30:38.334Z,103226.53
2023-01-23T09:33:11.636Z,103228.34
2023-01-23T09:35:38.250Z,103223.88
2023-01-23T09:38:24.668Z,103225.56
2023-01-23T09:40:57.461Z,103222.84
2023-01-23T09:43:47.962Z,103219.22
2023-01-23T09:46:45.990Z,103217.41
2023-01-23T09:49:37.268Z,103216.47
2023-01-23T09:52:46.068Z,103208.47
2023-01-23T09:55:28.858Z,103207.53
2023-01-23T09:58:01.156Z,103211.03
2023-01-23T10:00:33.835Z,103215.50
2023-01-23T10:03:15.519Z,103207.50
2023-01-23T10:06:24.354Z,103201.06
2023-01-23T10:09:44.719Z,103209.00
2023-01-23T10:12:56.198Z,103200.88
2023-01-23T10:15:37.518Z,103200.63
2023-01-23T10:18:31.074Z,103203.03
2023-01-23T10:21:56.085Z,103208.34
2023-01-23T10:24:28.328Z,103197.69
2023-01-23T10:27:11.578Z,103201.22
2023-01-23T10:30:19.162Z,103204.84
2023-01-23T10:33:19.427Z,103206.53
2023-01-23T10:36:09.514Z,103209.00
2023-01-23T10:41:44.439Z,103209.59
2023-01-23T10:44:27.375Z,103207.72
2023-01-23T10:47:25.563Z,103201.66
2023-01-23T10:49:53.397Z,103199.97
2023-01-23T10:53:01.976Z,103202.25
2023-01-23T10:55:31.297Z,103211.91
2023-01-23T10:58:10.224Z,103202.97
2023-01-23T11:00:49.075Z,103201.91
2023-01-23T11:03:21.789Z,103202.72
2023-01-23T11:06:02.961Z,103207.97
2023-01-23T11:08:49.789Z,103200.75
2023-01-23T11:11:16.362Z,103210.44
2023-01-23T11:13:48.416Z,103203.25
2023-01-23T11:16:25.783Z,103207.69
2023-01-23T11:19:16.586Z,103209.25
2023-01-23T11:22:03.275Z,103205.53
2023-01-23T11:24:41.163Z,103209.19
2023-01-23T11:27:28.074Z,103216.34
2023-01-23T11:30:48.368Z,103222.72
2023-01-23T11:34:14.859Z,103216.34
2023-01-23T11:37:18.817Z,103227.56
2023-01-23T11:40:15.141Z,103235.34
2023-01-23T11:42:46.125Z,103238.97
2023-01-23T12:51:36.804Z,103224.31
2023-01-23T12:57:00.350Z,103239.91
2023-01-23T13:03:46.047Z,103243.44
2023-01-23T13:06:47.608Z,103235.56
2023-01-23T13:09:54.865Z,103235.72
2023-01-23T13:12:28.443Z,103239.78
2023-01-23T13:15:22.651Z,103244.16
2023-01-23T13:18:00.171Z,103250.22
2023-01-23T13:21:17.952Z,103248.44
2023-01-23T13:23:48.014Z,103241.38
2023-01-23T13:26:23.108Z,103243.31
2023-01-23T13:28:57.641Z,103248.75
2023-01-23T13:31:47.557Z,103238.97
2023-01-23T13:34:34.745Z,103241.56
2023-01-23T13:37:29.289Z,103233.63
2023-01-23T13:40:19.590Z,103240.78
2023-01-23T13:42:46.275Z,103240.69
2023-01-23T13:45:29.674Z,103238.91
2023-01-23T14:03:17.765Z,103237.66
2023-01-23T14:22:37.983Z,103223.84
2023-01-23T14:25:18.481Z,103219.34
2023-01-23T14:27:54.387Z,103223.00
2023-01-23T14:30:28.447Z,103212.22
2023-01-23T14:32:56.270Z,103209.59
2023-01-23T14:35:32.197Z,103208.72
2023-01-23T14:38:24.127Z,103207.03
2023-01-23T14:40:51.416Z,103205.34
2023-01-23T14:43:27.812Z,103215.16
2023-01-23T14:46:17.183Z,103213.44
2023-01-23T14:48:54.386Z,103220.56
2023-01-23T14:51:27.866Z,103217.06
2023-01-23T14:54:04.353Z,103218.03
2023-01-23T14:56:39.696Z,103211.78
2023-01-23T14:59:38.702Z,103212.72
2023-01-23T15:02:36.228Z,103210.16
2023-01-23T15:05:27.351Z,103204.88
2023-01-23T15:08:01.384Z,103200.53
2023-01-23T15:10:53.145Z,103204.09
2023-01-23T15:13:51.186Z,103209.44
2023-01-23T15:16:28.489Z,103204.16
2023-01-23T15:19:24.473Z,103203.28
2023-01-23T15:22:06.181Z,103206.91
2023-01-23T15:24:32.993Z,103208.72
2023-01-23T15:27:40.442Z,103214.94
2023-01-23T15:30:48.625Z,103220.31
2023-01-23T15:33:34.810Z,103230.16
2023-01-23T15:36:28.031Z,103221.34
2023-01-23T15:39:02.420Z,103237.34
2023-01-23T15:42:04.334Z,103235.63
2023-01-23T15:44:33.243Z,103239.22
2023-01-23T15:47:01.227Z,103236.63
2023-01-23T15:49:33.736Z,103239.34
2023-01-23T15:52:20.640Z,103243.75
2023-01-23T15:54:51.820Z,103238.50
2023-01-23T15:57:22.076Z,103237.66
2023-01-23T15:59:49.056Z,103247.47
2023-01-23T16:02:39.379Z,103249.28
2023-01-23T16:05:10.388Z,103242.16
2023-01-23T16:07:43.092Z,103242.22
2023-01-23T16:10:22.669Z,103245.78
2023-01-23T16:12:54.488Z,103252.06
2023-01-23T16:15:32.962Z,103251.22
2023-01-23T16:18:03.037Z,103247.69
2023-01-23T16:20:44.364Z,103248.56
2023-01-23T16:23:38.986Z,103248.66
2023-01-23T16:26:27.992Z,103250.44
2023-01-23T16:29:08.709Z,103245.16
2023-01-23T16:31:40.152Z,103251.41
2023-01-23T16:34:09.869Z,103252.28
2023-01-23T16:36:36.624Z,103255.00
2023-01-23T16:39:04.054Z,103248.00
2023-01-23T16:41:31.842Z,103248.88
2023-01-23T16:43:58.547Z,103244.50
2023-01-23T16:46:25.961Z,103256.97
2023-01-23T16:48:54.843Z,103264.06
2023-01-23T16:51:25.248Z,103257.91
2023-01-23T16:54:02.246Z,103254.41
2023-01-23T16:56:41.782Z,103261.53
2023-01-23T16:59:25.899Z,103265.91
2023-01-23T17:01:53.148Z,103268.56
2023-01-23T17:04:21.926Z,103271.25
2023-01-23T17:06:49.634Z,103262.38
2023-01-23T17:09:17.510Z,103267.72
2023-01-23T17:11:55.475Z,103265.06
2023-01-23T17:14:32.799Z,103273.06
2023-01-23T17:17:13.599Z,103273.94
2023-01-23T17:19:43.117Z,103282.84
2023-01-23T17:22:25.807Z,103292.56
2023-01-23T17:24:53.419Z,103288.16
2023-01-23T17:27:20.194Z,103289.06
2023-01-23T17:29:46.825Z,103282.84
2023-01-23T17:32:32.588Z,103277.50
2023-01-23T17:35:09.446Z,103279.25
2023-01-23T17:37:36.449Z,103281.06
2023-01-23T17:40:03.817Z,103283.72
2023-01-23T17:42:33.192Z,103284.66
2023-01-23T17:45:02.758Z,103289.09
2023-01-23T17:47:35.072Z,103288.25
2023-01-23T17:50:03.039Z,103290.06
2023-01-23T17:52:30.959Z,103294.47
2023-01-23T17:54:57.673Z,103301.53
2023-01-23T17:57:24.287Z,103295.41
2023-01-23T17:59:51.279Z,103300.69
2023-01-23T18:02:28.048Z,103305.13
2023-01-23T18:04:56.064Z,103301.66
2023-01-23T18:07:23.285Z,103308.72
2023-01-23T18:09:50.603Z,103299.06
2023-01-23T18:12:49.942Z,103302.63
2023-01-23T18:16:20.898Z,103307.03
2023-01-23T18:18:59.007Z,103316.81
2023-01-23T18:21:35.190Z,103320.34
2023-01-23T18:24:02.449Z,103311.53
2023-01-23T18:26:54.238Z,103308.06
2023-01-23T18:30:09.061Z,103309.94
2023-01-23T18:33:05.498Z,103310.91
2023-01-23T18:36:02.994Z,103317.13
2023-01-23T18:39:19.052Z,103315.38
2023-01-23T18:42:24.183Z,103315.44
2023-01-23T18:45:09.567Z,103309.31
2023-01-23T18:47:36.919Z,103310.25
2023-01-23T18:50:05.907Z,103313.84
2023-01-23T18:53:11.873Z,103319.09
2023-01-23T18:56:38.514Z,103319.06
2023-01-23T18:59:49.412Z,103316.34
2023-01-23T19:02:52.331Z,103317.16
2023-01-23T19:05:34.777Z,103306.53
2023-01-23T19:08:02.542Z,103311.00
2023-01-23T19:59:11.961Z,103315.25
2023-01-23T20:07:02.523Z,103316.16
2023-01-23T20:09:30.425Z,103311.75
2023-01-23T20:11:57.982Z,103310.81
2023-01-23T20:14:31.821Z,103311.75
2023-01-23T20:46:57.515Z,103321.72
2023-01-23T20:49:24.243Z,103327.06
2023-01-23T20:51:53.069Z,103340.34
2023-01-23T20:54:22.845Z,103335.97
2023-01-23T20:56:49.493Z,103336.00
2023-01-23T20:59:24.966Z,103333.41
2023-01-23T21:02:10.153Z,103340.47
2023-01-23T21:04:37.346Z,103336.94
2023-01-23T21:07:04.900Z,103338.75
2023-01-23T21:09:31.794Z,103327.19
2023-01-23T21:11:59.817Z,103330.75
2023-01-23T21:14:26.738Z,103335.22
2023-01-23T21:16:53.697Z,103342.25
2023-01-23T21:19:20.639Z,103343.22
2023-01-23T21:21:48.085Z,103346.69
2023-01-23T21:24:17.398Z,103344.91
2023-01-23T21:26:44.296Z,103345.78
2023-01-23T21:29:11.373Z,103354.63
2023-01-23T21:31:42.636Z,103363.50
2023-01-23T21:34:14.869Z,103354.69
2023-01-23T21:36:43.298Z,103350.25
2023-01-23T21:39:14.920Z,103361.81
2023-01-23T21:41:42.097Z,103364.56
2023-01-23T21:44:13.767Z,103360.13
2023-01-23T21:46:41.553Z,103359.25
2023-01-23T21:49:08.462Z,103356.69
2023-01-23T21:51:38.268Z,103359.34
2023-01-23T21:54:05.065Z,103358.47
2023-01-23T21:56:34.928Z,103354.03
2023-01-23T21:59:01.786Z,103355.81
2023-01-23T22:01:45.193Z,103357.63
2023-01-23T22:04:24.266Z,103350.56
2023-01-23T22:06:56.653Z,103353.22
2023-01-23T22:09:25.917Z,103349.66
2023-01-23T22:11:53.874Z,103348.81
2023-01-23T22:14:21.193Z,103346.13
2023-01-23T22:16:50.072Z,103344.34
2023-01-23T22:19:24.974Z,103345.19
2023-01-23T22:21:55.739Z,103355.81
2023-01-23T22:24:22.799Z,103358.47
2023-01-23T22:26:49.981Z,103358.47
2023-01-23T22:29:16.732Z,103352.25
2023-01-23T22:31:43.631Z,103354.03
2023-01-23T22:34:10.525Z,103349.63
2023-01-23T22:36:37.258Z,103349.63
2023-01-23T22:39:04.320Z,103347.00
2023-01-23T22:41:31.018Z,103354.09
2023-01-23T22:43:59.304Z,103355.88
2023-01-23T22:46:26.778Z,103355.00
2023-01-23T22:48:53.826Z,103355.06
2023-01-23T22:51:25.559Z,103353.25
2023-01-23T22:53:55.128Z,103355.00
2023-01-23T22:56:24.152Z,103355.00
2023-01-23T22:58:54.320Z,103352.31
2023-01-23T23:01:27.090Z,103355.88
2023-01-23T23:03:57.738Z,103355.00
2023-01-23T23:06:25.263Z,103355.03
2023-01-23T23:08:52.296Z,103356.78
2023-01-23T23:11:25.283Z,103362.09
2023-01-23T23:13:53.352Z,103354.09
2023-01-23T23:16:27.619Z,103356.75
2023-01-23T23:18:56.938Z,103351.47
2023-01-23T23:21:30.342Z,103346.13
2023-01-23T23:23:59.547Z,103353.16
2023-01-23T23:26:32.021Z,103348.63
2023-01-23T23:29:02.099Z,103341.53
2023-01-23T23:31:29.902Z,103340.66
2023-01-23T23:33:57.301Z,103342.44
2023-01-23T23:36:24.065Z,103343.31
2023-01-23T23:38:50.972Z,103350.41
2023-01-23T23:41:18.103Z,103345.78
2023-01-23T23:43:45.085Z,103345.78
2023-01-23T23:46:14.331Z,103338.56
2023-01-23T23:48:43.983Z,103341.19
2023-01-23T23:51:16.448Z,103342.91
2023-01-23T23:53:43.179Z,103339.25
2023-01-23T23:56:21.167Z,103347.22
2023-01-23T23:58:48.159Z,103340.06
